createdAt,value
2019-02-06T00:00:44.384Z,95160.68
2019-02-06T00:03:18.201Z,95151.70
2019-02-06T00:05:47.885Z,95154.63
2019-02-06T00:08:17.450Z,95144.88
2019-02-06T00:10:46.930Z,95151.73
2019-02-06T00:13:16.588Z,95146.86
2019-02-06T00:15:46.071Z,95148.31
2019-02-06T00:18:15.734Z,95150.77
2019-02-06T00:20:45.229Z,95152.55
2019-02-06T00:23:14.726Z,95151.23
2019-02-06T00:25:44.303Z,95153.69
2019-02-06T00:28:13.823Z,95157.92
2019-02-06T00:30:43.640Z,95162.66
2019-02-06T00:33:13.216Z,95160.16
2019-02-06T00:35:42.712Z,95154.64
2019-02-06T00:38:12.209Z,95151.57
2019-02-06T00:40:41.746Z,95147.84
2019-02-06T00:43:11.347Z,95140.35
2019-02-06T00:45:40.850Z,95145.69
2019-02-06T00:48:10.406Z,95148.46
2019-02-06T00:50:39.864Z,95145.36
2019-02-06T00:53:09.364Z,95135.73
2019-02-06T00:55:38.934Z,95139.96
2019-02-06T00:58:08.435Z,95143.22
2019-02-06T01:00:37.951Z,95140.63
2019-02-06T01:03:08.088Z,95149.38
2019-02-06T01:05:38.860Z,95148.08
2019-02-06T01:08:08.678Z,95147.77
2019-02-06T01:10:38.157Z,95145.83
2019-02-06T01:13:07.625Z,95148.56
2019-02-06T01:15:37.610Z,95141.88
2019-02-06T01:18:07.261Z,95143.19
2019-02-06T01:20:36.793Z,95141.02
2019-02-06T01:23:06.467Z,95132.44
2019-02-06T01:25:35.959Z,95140.59
2019-02-06T01:28:05.548Z,95138.47
2019-02-06T01:30:48.836Z,95138.83
2019-02-06T01:33:18.318Z,95133.95
2019-02-06T01:35:50.060Z,95124.98
2019-02-06T01:38:19.140Z,95127.29
2019-02-06T01:40:48.632Z,95125.80
2019-02-06T01:43:18.563Z,95129.55
2019-02-06T01:45:48.048Z,95123.95
2019-02-06T01:48:17.536Z,95120.22
2019-02-06T01:50:47.079Z,95117.44
2019-02-06T01:53:16.542Z,95114.81
2019-02-06T01:55:45.966Z,95107.05
2019-02-06T01:58:15.528Z,95112.57
2019-02-06T02:00:45.011Z,95109.61
2019-02-06T02:03:14.511Z,95104.42
2019-02-06T02:05:44.133Z,95103.84
2019-02-06T02:08:13.723Z,95093.27
2019-02-06T02:10:43.328Z,95081.41
2019-02-06T02:13:12.840Z,95081.41
2019-02-06T02:15:42.346Z,95078.63
2019-02-06T02:18:11.876Z,95081.98
2019-02-06T02:20:41.385Z,95071.60
2019-02-06T02:23:10.891Z,95074.20
2019-02-06T02:25:40.406Z,95072.55
2019-02-06T02:28:09.872Z,95079.63
2019-02-06T02:30:46.100Z,95083.20
2019-02-06T02:33:15.631Z,95073.48
2019-02-06T02:35:45.109Z,95070.33
2019-02-06T02:38:16.376Z,95064.69
2019-02-06T02:40:45.872Z,95064.09
2019-02-06T02:43:15.354Z,95048.52
2019-02-06T02:45:44.812Z,95055.41
2019-02-06T02:48:14.284Z,95052.02
2019-02-06T02:50:43.823Z,95055.12
2019-02-06T02:53:13.326Z,95047.34
2019-02-06T02:55:42.850Z,95050.93
2019-02-06T02:58:12.288Z,95050.91
2019-02-06T03:01:15.857Z,95041.78
2019-02-06T03:04:10.930Z,95048.27
2019-02-06T03:06:42.366Z,95046.00
2019-02-06T03:09:13.403Z,95042.78
2019-02-06T03:11:42.875Z,95035.46
2019-02-06T03:14:12.796Z,95031.73
2019-02-06T03:16:42.294Z,95035.34
2019-02-06T03:19:11.788Z,95029.32
2019-02-06T03:21:41.356Z,95037.78
2019-02-06T03:24:10.844Z,95049.62
2019-02-06T03:26:40.343Z,95050.59
2019-02-06T03:29:10.245Z,95049.11
2019-02-06T03:31:39.677Z,95047.97
2019-02-06T03:34:09.187Z,95047.64
2019-02-06T03:36:40.878Z,95043.08
2019-02-06T03:39:10.878Z,95049.22
2019-02-06T03:41:40.417Z,95047.77
2019-02-06T03:44:10.298Z,95041.47
2019-02-06T03:46:39.724Z,95032.07
2019-02-06T03:49:09.329Z,95038.41
2019-02-06T03:51:38.804Z,95035.59
2019-02-06T03:54:08.293Z,95030.55
2019-02-06T03:56:37.847Z,95031.37
2019-02-06T03:59:07.716Z,95027.81
2019-02-06T04:01:37.243Z,95029.72
2019-02-06T04:04:06.750Z,95033.62
2019-02-06T04:06:36.209Z,95041.39
2019-02-06T04:09:08.990Z,95050.95
2019-02-06T04:11:38.547Z,95043.68
2019-02-06T04:14:08.568Z,95047.91
2019-02-06T04:16:38.106Z,95047.52
2019-02-06T04:19:07.640Z,95056.24
2019-02-06T04:21:37.115Z,95060.28
2019-02-06T04:24:06.679Z,95067.11
2019-02-06T04:26:36.154Z,95065.62
2019-02-06T04:29:05.865Z,95060.16
2019-02-06T04:31:35.576Z,95054.84
2019-02-06T04:34:05.141Z,95052.88
2019-02-06T04:36:34.604Z,95048.02
2019-02-06T04:39:05.590Z,95043.12
2019-02-06T04:41:35.112Z,95043.28
2019-02-06T04:44:04.682Z,95049.23
2019-02-06T04:46:34.202Z,95050.86
2019-02-06T04:49:03.759Z,95052.17
2019-02-06T04:51:33.301Z,95067.11
2019-02-06T04:54:02.927Z,95070.03
2019-02-06T04:56:32.443Z,95074.36
2019-02-06T04:59:01.954Z,95072.00
2019-02-06T05:01:31.516Z,95081.16
2019-02-06T05:04:01.013Z,95075.05
2019-02-06T05:06:30.565Z,95075.83
2019-02-06T05:09:00.054Z,95075.16
2019-02-06T05:11:29.736Z,95080.83
2019-02-06T05:13:59.545Z,95086.72
2019-02-06T05:16:29.057Z,95087.75
2019-02-06T05:18:58.568Z,95085.45
2019-02-06T05:21:28.139Z,95082.12
2019-02-06T05:23:57.593Z,95085.87
2019-02-06T05:26:27.129Z,95088.23
2019-02-06T05:28:57.052Z,95091.52
2019-02-06T05:31:26.518Z,95101.07
2019-02-06T05:33:56.103Z,95094.19
2019-02-06T05:36:25.612Z,95102.69
2019-02-06T05:38:55.070Z,95105.06
2019-02-06T05:41:24.582Z,95110.00
2019-02-06T05:43:54.496Z,95115.95
2019-02-06T05:46:24.035Z,95120.00
2019-02-06T05:48:53.538Z,95118.26
2019-02-06T05:51:23.048Z,95105.67
2019-02-06T05:53:52.574Z,95120.38
2019-02-06T05:56:22.079Z,95126.56
2019-02-06T05:58:51.544Z,95130.47
2019-02-06T06:01:24.698Z,95126.62
2019-02-06T06:03:54.313Z,95119.94
2019-02-06T06:06:23.807Z,95128.79
2019-02-06T06:08:53.324Z,95130.75
2019-02-06T06:11:22.808Z,95139.69
2019-02-06T06:13:52.734Z,95140.42
2019-02-06T06:16:22.271Z,95137.72
2019-02-06T06:18:51.768Z,95140.74
2019-02-06T06:21:21.251Z,95145.33
2019-02-06T06:23:50.780Z,95145.59
2019-02-06T06:26:20.236Z,95143.34
2019-02-06T06:28:49.728Z,95151.50
2019-02-06T06:31:19.154Z,95154.35
2019-02-06T06:33:48.711Z,95140.51
2019-02-06T06:36:18.253Z,95135.30
2019-02-06T06:38:47.771Z,95131.92
2019-02-06T06:41:17.276Z,95128.43
2019-02-06T06:43:46.776Z,95129.16
2019-02-06T06:46:16.389Z,95127.22
2019-02-06T06:48:45.888Z,95131.95
2019-02-06T06:51:15.427Z,95119.79
2019-02-06T06:53:44.906Z,95128.97
2019-02-06T06:56:14.430Z,95128.64
2019-02-06T06:58:43.979Z,95139.88
2019-02-06T07:01:13.555Z,95130.57
2019-02-06T07:03:43.154Z,95128.48
2019-02-06T07:06:12.632Z,95132.41
2019-02-06T07:08:42.093Z,95130.83
2019-02-06T07:11:11.650Z,95136.84
2019-02-06T07:13:41.149Z,95141.38
2019-02-06T07:16:10.830Z,95136.28
2019-02-06T07:18:40.310Z,95130.75
2019-02-06T07:21:09.766Z,95129.79
2019-02-06T07:23:39.314Z,95136.64
2019-02-06T07:26:08.868Z,95130.75
2019-02-06T07:28:38.373Z,95125.91
2019-02-06T07:31:08.159Z,95125.43
2019-02-06T07:33:37.816Z,95125.92
2019-02-06T07:36:07.289Z,95131.11
2019-02-06T07:38:36.767Z,95129.42
2019-02-06T07:41:06.269Z,95142.38
2019-02-06T07:43:35.787Z,95137.06
2019-02-06T07:46:05.720Z,95136.89
2019-02-06T07:48:35.153Z,95139.97
2019-02-06T07:51:04.672Z,95135.10
2019-02-06T07:53:34.186Z,95143.44
2019-02-06T07:56:03.695Z,95150.53
2019-02-06T07:58:33.207Z,95144.31
2019-02-06T08:01:03.058Z,95148.88
2019-02-06T08:03:32.541Z,95149.91
2019-02-06T08:06:02.087Z,95146.97
2019-02-06T08:08:36.105Z,95149.39
2019-02-06T08:11:03.223Z,95161.89
2019-02-06T08:13:32.797Z,95152.83
2019-02-06T08:16:02.728Z,95154.40
2019-02-06T08:18:32.187Z,95151.50
2019-02-06T08:21:01.686Z,95158.41
2019-02-06T08:23:31.185Z,95155.88
2019-02-06T08:26:00.724Z,95162.08
2019-02-06T08:28:30.224Z,95165.12
2019-02-06T08:31:00.142Z,95169.02
2019-02-06T08:33:29.671Z,95166.27
2019-02-06T08:35:59.256Z,95169.75
2019-02-06T08:38:28.748Z,95174.46
2019-02-06T08:40:58.205Z,95174.58
2019-02-06T08:43:27.705Z,95171.64
2019-02-06T08:45:57.207Z,95175.48
2019-02-06T08:48:26.767Z,95173.42
2019-02-06T08:50:56.385Z,95182.34
2019-02-06T08:53:25.878Z,95181.65
2019-02-06T08:55:55.362Z,95180.50
2019-02-06T08:58:24.937Z,95173.73
2019-02-06T09:00:54.796Z,95180.73
2019-02-06T09:03:24.337Z,95197.83
2019-02-06T09:05:53.863Z,95195.81
2019-02-06T09:08:23.344Z,95194.52
2019-02-06T09:10:52.943Z,95193.58
2019-02-06T09:13:22.476Z,95191.16
2019-02-06T09:15:52.187Z,95183.90
2019-02-06T09:18:21.670Z,95188.77
2019-02-06T09:20:52.752Z,95195.47
2019-02-06T09:23:22.459Z,95198.31
2019-02-06T09:25:52.008Z,95191.49
2019-02-06T09:28:21.505Z,95189.38
2019-02-06T09:30:51.038Z,95196.95
2019-02-06T09:33:20.605Z,95208.60
2019-02-06T09:35:50.126Z,95205.91
2019-02-06T09:38:19.663Z,95207.84
2019-02-06T09:40:49.705Z,95211.23
2019-02-06T09:43:19.375Z,95202.13
2019-02-06T09:45:49.168Z,95207.87
2019-02-06T09:48:18.664Z,95212.11
2019-02-06T09:50:48.218Z,95206.98
2019-02-06T09:53:17.710Z,95204.09
2019-02-06T09:55:47.296Z,95209.31
2019-02-06T09:58:16.927Z,95202.46
2019-02-06T10:00:46.772Z,95204.11
2019-02-06T10:03:16.340Z,95194.48
2019-02-06T10:05:45.887Z,95193.82
2019-02-06T10:08:15.401Z,95201.11
2019-02-06T10:10:44.968Z,95201.97
2019-02-06T10:13:16.593Z,95203.76
2019-02-06T10:15:45.939Z,95194.82
2019-02-06T10:18:15.589Z,95200.84
2019-02-06T10:20:48.076Z,95201.34
2019-02-06T10:23:17.898Z,95201.83
2019-02-06T10:25:47.710Z,95200.38
2019-02-06T10:28:17.228Z,95197.34
2019-02-06T10:30:48.993Z,95191.16
2019-02-06T10:33:19.294Z,95187.27
2019-02-06T10:35:51.947Z,95185.30
2019-02-06T10:38:20.366Z,95185.30
2019-02-06T10:40:49.888Z,95179.14
2019-02-06T10:43:31.262Z,95171.95
2019-02-06T10:45:50.980Z,95179.77
2019-02-06T10:48:20.545Z,95190.02
2019-02-06T10:50:52.085Z,95185.95
2019-02-06T10:53:21.621Z,95177.81
2019-02-06T10:55:53.926Z,95176.66
2019-02-06T10:58:23.616Z,95177.16
2019-02-06T11:00:56.314Z,95174.51
2019-02-06T11:03:26.077Z,95168.67
2019-02-06T11:05:56.000Z,95175.22
2019-02-06T11:08:25.518Z,95178.16
2019-02-06T11:10:55.112Z,95186.60
2019-02-06T11:13:24.771Z,95179.47
2019-02-06T11:15:54.306Z,95178.16
2019-02-06T11:18:23.871Z,95187.73
2019-02-06T11:20:53.450Z,95183.34
2019-02-06T11:23:23.056Z,95183.98
2019-02-06T11:25:52.621Z,95187.73
2019-02-06T11:28:22.190Z,95194.43
2019-02-06T11:30:51.750Z,95189.70
2019-02-06T11:33:21.280Z,95180.27
2019-02-06T11:35:50.835Z,95172.73
2019-02-06T11:38:20.322Z,95173.09
2019-02-06T11:40:50.043Z,95173.09
2019-02-06T11:43:19.566Z,95169.19
2019-02-06T11:45:49.351Z,95175.23
2019-02-06T11:48:18.926Z,95175.87
2019-02-06T11:50:48.439Z,95170.49
2019-02-06T11:53:26.561Z,95170.84
2019-02-06T11:55:57.021Z,95180.74
2019-02-06T11:58:26.847Z,95177.98
2019-02-06T12:01:21.160Z,95184.98
2019-02-06T12:03:51.093Z,95180.09
2019-02-06T12:06:20.612Z,95167.67
2019-02-06T12:08:50.113Z,95177.13
2019-02-06T12:11:19.637Z,95178.53
2019-02-06T12:13:49.123Z,95184.81
2019-02-06T12:16:18.839Z,95182.34
2019-02-06T12:18:48.691Z,95188.84
2019-02-06T12:21:18.271Z,95183.06
2019-02-06T12:23:47.800Z,95175.87
2019-02-06T12:26:17.328Z,95172.83
2019-02-06T12:28:46.928Z,95172.61
2019-02-06T12:31:16.439Z,95167.81
2019-02-06T12:33:46.017Z,95164.48
2019-02-06T12:36:16.010Z,95162.26
2019-02-06T12:38:52.974Z,95163.80
2019-02-06T12:41:16.989Z,95164.79
2019-02-06T12:43:46.524Z,95165.12
2019-02-06T12:46:16.078Z,95165.80
2019-02-06T12:48:45.594Z,95167.28
2019-02-06T12:51:15.192Z,95170.36
2019-02-06T12:53:44.809Z,95169.11
2019-02-06T12:56:14.365Z,95174.48
2019-02-06T12:58:43.973Z,95178.51
2019-02-06T13:01:13.473Z,95176.39
2019-02-06T13:03:43.159Z,95183.79
2019-02-06T13:06:12.709Z,95180.38
2019-02-06T13:08:42.522Z,95185.78
2019-02-06T13:11:12.087Z,95180.42
2019-02-06T13:13:41.702Z,95191.64
2019-02-06T13:16:11.206Z,95188.69
2019-02-06T13:18:40.749Z,95183.52
2019-02-06T13:21:10.286Z,95185.47
2019-02-06T13:23:40.067Z,95191.00
2019-02-06T13:26:09.561Z,95188.86
2019-02-06T13:28:39.128Z,95190.03
2019-02-06T13:31:08.670Z,95190.20
2019-02-06T13:33:38.206Z,95196.88
2019-02-06T13:36:10.299Z,95198.14
2019-02-06T13:38:39.827Z,95193.45
2019-02-06T13:41:09.332Z,95197.67
2019-02-06T13:43:38.910Z,95193.60
2019-02-06T13:46:08.606Z,95199.00
2019-02-06T13:48:38.146Z,95197.80
2019-02-06T13:51:16.361Z,95193.59
2019-02-06T13:53:42.259Z,95184.02
2019-02-06T13:56:10.657Z,95193.42
2019-02-06T13:58:40.257Z,95200.05
2019-02-06T14:01:09.884Z,95196.78
2019-02-06T14:03:39.457Z,95195.45
2019-02-06T14:06:11.448Z,95204.09
2019-02-06T14:08:40.878Z,95203.70
2019-02-06T14:11:10.490Z,95208.72
2019-02-06T14:13:39.981Z,95214.65
2019-02-06T14:16:10.301Z,95219.06
2019-02-06T14:18:39.776Z,95220.81
2019-02-06T14:21:09.601Z,95216.20
2019-02-06T14:24:32.263Z,95222.03
2019-02-06T14:27:36.895Z,95223.50
2019-02-06T14:30:57.825Z,95219.70
2019-02-06T14:33:53.028Z,95221.92
2019-02-06T14:37:01.995Z,95214.08
2019-02-06T14:39:56.981Z,95212.16
2019-02-06T14:42:41.551Z,95212.88
2019-02-06T14:46:11.999Z,95220.67
2019-02-06T14:49:39.308Z,95218.31
2019-02-06T14:52:58.750Z,95218.47
2019-02-06T14:55:37.959Z,95216.30
2019-02-06T14:58:35.600Z,95214.23
2019-02-06T15:01:31.691Z,95217.85
2019-02-06T15:04:40.999Z,95217.90
2019-02-06T15:07:39.001Z,95204.61
2019-02-06T15:10:28.828Z,95198.92
2019-02-06T15:13:45.287Z,95203.31
2019-02-06T15:17:04.640Z,95200.33
2019-02-06T15:19:48.836Z,95196.28
2019-02-06T15:23:11.716Z,95195.48
2019-02-06T15:26:34.485Z,95196.16
2019-02-06T15:29:41.513Z,95195.94
2019-02-06T15:32:50.693Z,95197.58
2019-02-06T15:36:05.072Z,95199.23
2019-02-06T15:38:49.010Z,95197.03
2019-02-06T15:41:56.240Z,95194.08
2019-02-06T15:44:35.150Z,95196.66
2019-02-06T15:47:54.429Z,95194.13
2019-02-06T15:50:53.406Z,95193.65
2019-02-06T15:54:12.880Z,95195.19
2019-02-06T15:57:07.681Z,95198.66
2019-02-06T16:00:03.700Z,95199.65
2019-02-06T16:03:04.832Z,95201.84
2019-02-06T16:06:00.249Z,95201.67
2019-02-06T16:08:56.254Z,95203.95
2019-02-06T16:11:53.039Z,95211.25
2019-02-06T16:14:51.583Z,95208.27
2019-02-06T16:17:55.232Z,95213.36
2019-02-06T16:20:55.970Z,95219.75
2019-02-06T16:24:08.412Z,95223.67
2019-02-06T16:27:30.135Z,95222.52
2019-02-06T16:30:38.180Z,95230.00
2019-02-06T16:33:42.385Z,95232.97
2019-02-06T16:36:47.155Z,95243.09
2019-02-06T16:39:53.303Z,95247.19
2019-02-06T16:43:11.481Z,95247.61
2019-02-06T16:46:36.882Z,95247.33
2019-02-06T16:49:40.505Z,95253.30
2019-02-06T16:52:16.212Z,95251.95
2019-02-06T16:55:17.518Z,95258.02
2019-02-06T16:58:44.805Z,95264.22
2019-02-06T17:01:39.572Z,95273.85
2019-02-06T17:04:26.274Z,95278.67
2019-02-06T17:07:51.826Z,95275.66
2019-02-06T17:11:16.904Z,95281.11
2019-02-06T17:14:26.082Z,95284.05
2019-02-06T17:17:23.991Z,95290.59
2019-02-06T17:20:42.348Z,95293.33
2019-02-06T17:23:44.850Z,95300.00
2019-02-06T17:26:30.264Z,95299.19
2019-02-06T17:29:34.313Z,95302.05
2019-02-06T17:32:36.076Z,95300.92
2019-02-06T17:35:41.714Z,95301.94
2019-02-06T17:38:33.128Z,95306.48
2019-02-06T17:41:12.739Z,95308.80
2019-02-06T17:44:26.144Z,95303.31
2019-02-06T17:47:20.408Z,95309.35
2019-02-06T17:50:28.470Z,95312.15
2019-02-06T17:53:47.996Z,95312.16
2019-02-06T17:56:18.206Z,95316.11
2019-02-06T17:58:47.755Z,95321.91
2019-02-06T18:01:30.656Z,95317.64
2019-02-06T18:04:23.776Z,95317.23
2019-02-06T18:06:53.440Z,95323.83
2019-02-06T18:09:22.958Z,95321.37
2019-02-06T18:11:53.227Z,95330.41
2019-02-06T18:14:22.795Z,95326.44
2019-02-06T18:16:52.325Z,95330.32
2019-02-06T18:19:21.895Z,95331.76
2019-02-06T18:21:52.028Z,95330.19
2019-02-06T18:24:21.531Z,95332.27
2019-02-06T18:26:51.075Z,95331.78
2019-02-06T18:29:20.606Z,95325.70
2019-02-06T18:31:50.098Z,95332.80
2019-02-06T18:34:19.667Z,95330.97
2019-02-06T18:36:49.185Z,95333.80
2019-02-06T18:39:19.046Z,95332.02
2019-02-06T18:41:48.764Z,95333.52
2019-02-06T18:44:18.330Z,95332.45
2019-02-06T18:46:49.615Z,95336.87
2019-02-06T18:49:19.308Z,95336.81
2019-02-06T18:51:48.890Z,95338.39
2019-02-06T18:54:18.425Z,95346.68
2019-02-06T18:56:48.375Z,95343.32
2019-02-06T18:59:18.013Z,95349.94
2019-02-06T19:01:47.589Z,95359.49
2019-02-06T19:04:19.364Z,95355.95
2019-02-06T19:06:49.002Z,95363.24
2019-02-06T19:09:19.092Z,95364.67
2019-02-06T19:11:48.764Z,95360.34
2019-02-06T19:14:18.805Z,95368.13
2019-02-06T19:16:48.463Z,95362.27
2019-02-06T19:19:25.147Z,95361.28
2019-02-06T19:21:49.761Z,95377.20
2019-02-06T19:24:19.253Z,95373.11
2019-02-06T19:26:48.777Z,95369.30
2019-02-06T19:29:18.323Z,95377.09
2019-02-06T19:31:48.056Z,95376.01
2019-02-06T19:34:17.527Z,95381.78
2019-02-06T19:36:47.083Z,95381.92
2019-02-06T19:39:16.676Z,95386.19
2019-02-06T19:41:46.516Z,95383.33
2019-02-06T19:44:16.045Z,95382.67
2019-02-06T19:46:45.984Z,95384.52
2019-02-06T19:49:15.478Z,95387.84
2019-02-06T19:51:45.025Z,95385.09
2019-02-06T19:54:16.940Z,95381.98
2019-02-06T19:56:46.527Z,95384.42
2019-02-06T19:59:16.070Z,95380.33
2019-02-06T20:01:45.630Z,95381.17
2019-02-06T20:04:15.538Z,95389.41
2019-02-06T20:06:45.213Z,95390.36
2019-02-06T20:09:15.424Z,95392.27
2019-02-06T20:11:45.001Z,95384.53
2019-02-06T20:14:14.531Z,95386.27
2019-02-06T20:16:44.016Z,95385.80
2019-02-06T20:19:13.507Z,95390.03
2019-02-06T20:21:43.430Z,95384.63
2019-02-06T20:24:13.032Z,95381.63
2019-02-06T20:26:42.625Z,95392.27
2019-02-06T20:29:12.299Z,95392.42
2019-02-06T20:31:41.830Z,95396.80
2019-02-06T20:34:11.330Z,95403.00
2019-02-06T20:36:40.812Z,95402.64
2019-02-06T20:39:10.586Z,95403.05
2019-02-06T20:41:40.175Z,95401.39
2019-02-06T20:44:09.894Z,95403.79
2019-02-06T20:46:39.592Z,95400.65
2019-02-06T20:49:09.205Z,95403.58
2019-02-06T20:51:38.890Z,95400.85
2019-02-06T20:54:08.691Z,95405.63
2019-02-06T20:56:38.560Z,95406.24
2019-02-06T20:59:08.079Z,95401.94
2019-02-06T21:01:39.623Z,95404.76
2019-02-06T21:04:09.148Z,95401.48
2019-02-06T21:06:38.639Z,95403.47
2019-02-06T21:09:13.886Z,95403.84
2019-02-06T21:11:43.434Z,95400.33
2019-02-06T21:14:12.915Z,95400.33
2019-02-06T21:16:42.531Z,95395.14
2019-02-06T21:19:12.094Z,95393.98
2019-02-06T21:21:41.580Z,95392.28
2019-02-06T21:24:11.492Z,95393.84
2019-02-06T21:26:41.089Z,95386.03
2019-02-06T21:29:10.616Z,95391.55
2019-02-06T21:31:40.550Z,95387.03
2019-02-06T21:34:10.094Z,95389.08
2019-02-06T21:36:39.576Z,95384.88
2019-02-06T21:39:10.333Z,95388.53
2019-02-06T21:41:39.861Z,95389.60
2019-02-06T21:44:09.322Z,95386.98
2019-02-06T21:46:38.912Z,95392.53
2019-02-06T21:49:08.405Z,95396.49
2019-02-06T21:51:37.992Z,95397.45
2019-02-06T21:54:07.939Z,95398.67
2019-02-06T21:56:37.469Z,95399.83
2019-02-06T21:59:07.076Z,95395.13
2019-02-06T22:01:36.560Z,95394.88
2019-02-06T22:04:06.188Z,95401.36
2019-02-06T22:06:35.666Z,95399.52
2019-02-06T22:09:10.443Z,95403.36
2019-02-06T22:11:39.948Z,95393.52
2019-02-06T22:14:09.516Z,95390.88
2019-02-06T22:16:39.032Z,95389.97
2019-02-06T22:19:08.504Z,95390.44
2019-02-06T22:21:38.308Z,95397.01
2019-02-06T22:24:07.824Z,95387.78
2019-02-06T22:26:37.309Z,95388.03
2019-02-06T22:29:06.879Z,95386.28
2019-02-06T22:31:36.534Z,95391.80
2019-02-06T22:34:06.214Z,95392.49
2019-02-06T22:36:36.035Z,95391.85
2019-02-06T22:39:11.362Z,95393.08
2019-02-06T22:41:40.894Z,95396.64
2019-02-06T22:44:10.389Z,95395.16
2019-02-06T22:46:39.909Z,95389.50
2019-02-06T22:49:09.667Z,95395.58
2019-02-06T22:51:39.199Z,95393.12
2019-02-06T22:54:08.692Z,95397.83
2019-02-06T22:56:38.180Z,95404.83
2019-02-06T22:59:07.629Z,95402.11
2019-02-06T23:01:47.851Z,95404.00
2019-02-06T23:04:17.352Z,95399.84
2019-02-06T23:06:46.893Z,95396.78
2019-02-06T23:09:16.381Z,95393.64
2019-02-06T23:11:45.900Z,95399.23
2019-02-06T23:14:17.375Z,95394.61
2019-02-06T23:16:46.867Z,95395.13
2019-02-06T23:19:16.361Z,95392.05
2019-02-06T23:21:45.867Z,95389.94
2019-02-06T23:24:15.349Z,95378.53
2019-02-06T23:26:44.838Z,95381.13
2019-02-06T23:29:14.364Z,95374.34
2019-02-06T23:31:43.899Z,95379.19
2019-02-06T23:34:13.461Z,95379.52
2019-02-06T23:36:43.109Z,95384.13
2019-02-06T23:39:18.213Z,95378.33
2019-02-06T23:41:47.795Z,95373.25
2019-02-06T23:44:28.277Z,95378.33
2019-02-06T23:46:48.824Z,95381.44
2019-02-06T23:49:18.292Z,95391.26
2019-02-06T23:51:47.756Z,95384.89
2019-02-06T23:54:17.298Z,95387.69
2019-02-06T23:56:46.780Z,95377.09
2019-02-06T23:59:16.330Z,95383.86
